Time;durP1;ratioP1;P1;durP2;ratioP2;P2;SDS_P1;SDS_P2;PMS_P1;PMS_P2;Temp;Humidity;BMP_temperature;BMP_pressure;BME280_temperature;BME280_humidity;BME280_pressure;Samples;Min_cycle;Max_cycle;Signal;HPM_P1;HPM_P2
2022/12/22 03:27:13;;;;;;;;;;;;;;;22.34;nan;95290.25;6098406;19;1539;-72
2022/12/22 03:29:16;;;;;;;;;;;;;;;22.25;nan;95294.19;6122789;19;1849;-73
2022/12/22 03:31:22;;;;;;;;;;;;;;;22.19;nan;95285.16;6122497;19;1651;-73
2022/12/22 03:33:26;;;;;;;;;;;;;;;22.17;nan;95281.06;6123209;19;1857;-73
2022/12/22 03:35:29;;;;;;;;;;;;;;;22.19;nan;95285.16;6123186;19;1814;-73
2022/12/22 03:37:33;;;;;;;;;;;;;;;22.39;nan;95279.69;6113225;19;1811;-76
2022/12/22 03:39:36;;;;;;;;;;;;;;;22.28;nan;95278.53;6107809;19;1813;-76
2022/12/22 03:48:42;;;;;;;;;;;;;;;22.28;nan;95285.72;6118007;19;1841;-76
2022/12/22 03:50:46;;;;;;;;;;;;;;;22.28;nan;95286.56;6096732;19;1647;-76
2022/12/22 03:52:49;;;;;;;;;;;;;;;22.31;nan;95290.69;6121410;19;1772;-73
2022/12/22 03:54:52;;;;;;;;;;;;;;;22.37;nan;95287.13;6120291;19;1743;-73
2022/12/22 03:56:56;;;;;;;;;;;;;;;22.31;nan;95288.00;6122382;19;1705;-74
2022/12/22 03:58:59;;;;;;;;;;;;;;;22.32;nan;95289.63;6121213;19;1697;-73
2022/12/22 04:01:06;;;;;;;;;;;;;;;22.28;nan;95283.06;6093404;19;1596;-73
2022/12/22 04:03:10;;;;;;;;;;;;;;;22.53;nan;95289.25;6119526;19;1920;-73
2022/12/22 04:05:16;;;;;;;;;;;;;;;20.42;nan;95294.19;6121461;19;1762;-74
2022/12/22 04:07:19;;;;;;;;;;;;;;;20.21;nan;95295.16;6117961;19;1757;-73
2022/12/22 04:09:24;;;;;;;;;;;;;;;20.95;nan;95292.34;6118733;19;1860;-74
2022/12/22 04:13:41;;;;;;;;;;;;;;;20.96;nan;95290.47;6096618;19;1737;-74
2022/12/22 04:15:44;;;;;;;;;;;;;;;14.53;nan;95288.81;6122233;19;1692;-73
2022/12/22 04:17:47;;;;;;;;;;;;;;;12.43;nan;95295.75;6119984;19;1793;-73
2022/12/22 04:19:51;;;;;;;;;;;;;;;10.86;nan;95288.19;6120712;19;1702;-73
2022/12/22 04:21:57;;;;;;;;;;;;;;;9.66;nan;95290.41;6121855;19;1739;-73
2022/12/22 04:24:00;;;;;;;;;;;;;;;9.15;nan;95294.81;6097544;19;1730;-72
2022/12/22 04:26:03;;;;;;;;;;;;;;;8.63;nan;95300.16;6121458;19;1595;-74
2022/12/22 04:28:07;;;;;;;;;;;;;;;9.12;nan;95284.63;6119796;19;1037;-74
2022/12/22 04:30:11;;;;;;;;;;;;;;;8.53;nan;95293.19;6119929;19;1642;-74
2022/12/22 04:32:14;;;;;;;;;;;;;;;8.83;nan;95297.63;6121041;19;1577;-74
2022/12/22 04:34:17;;;;;;;;;;;;;;;9.34;nan;95294.09;6121080;19;1706;-73
2022/12/22 04:36:21;;;;;;;;;;;;;;;9.08;nan;95289.31;6092877;19;1842;-74
2022/12/22 04:38:27;;;;;;;;;;;;;;;8.49;nan;95295.25;6120786;19;1696;-73
2022/12/22 04:40:30;;;;;;;;;;;;;;;8.65;nan;95293.00;6119772;19;2051;-73
2022/12/22 04:42:33;;;;;;;;;;;;;;;8.41;nan;95295.06;6119838;19;1757;-73
2022/12/22 04:44:36;;;;;;;;;;;;;;;7.88;nan;95297.72;6118046;19;1116;-73
2022/12/22 04:46:40;;;;;;;;;;;;;;;7.69;nan;95306.25;6106438;19;1053;-73
2022/12/22 04:48:43;;;;;;;;;;;;;;;8.16;nan;95302.38;6105034;19;1847;-73
2022/12/22 04:50:46;;;;;;;;;;;;;;;7.52;nan;95307.63;6118605;19;1110;-74
2022/12/22 04:52:50;;;;;;;;;;;;;;;11.20;nan;95295.50;6119143;19;1820;-74
2022/12/22 04:54:56;;;;;;;;;;;;;;;13.10;nan;95288.06;6121085;19;1724;-74
2022/12/22 04:57:00;;;;;;;;;;;;;;;14.52;nan;95295.94;6119959;19;1817;-73
2022/12/22 04:59:03;;;;;;;;;;;;;;;15.25;nan;95294.16;6095145;19;1736;-74
2022/12/22 05:01:10;;;;;;;;;;;;;;;16.35;nan;95293.19;6120954;19;1682;-76
2022/12/22 05:03:13;;;;;;;;;;;;;;;16.89;nan;95295.72;6113246;19;1722;-75
2022/12/22 05:05:17;;;;;;;;;;;;;;;17.24;nan;95288.03;6118395;19;1457;-76
2022/12/22 05:07:20;;;;;;;;;;;;;;;17.55;nan;95287.81;6120106;19;1711;-73
2022/12/22 05:09:23;;;;;;;;;;;;;;;17.87;nan;95286.63;6112913;19;1884;-75
2022/12/22 05:11:29;;;;;;;;;;;;;;;17.49;nan;95286.75;6102982;19;1731;-75
2022/12/22 05:13:33;;;;;;;;;;;;;;;15.53;nan;95291.84;6115307;19;1090;-73
2022/12/22 05:15:39;;;;;;;;;;;;;;;15.63;nan;95281.06;6117471;19;1528;-74
2022/12/22 05:17:42;;;;;;;;;;;;;;;16.74;nan;95285.88;6118155;19;1061;-74
2022/12/22 05:19:46;;;;;;;;;;;;;;;17.43;nan;95285.66;6116387;19;1465;-72
2022/12/22 05:21:49;;;;;;;;;;;;;;;17.78;nan;95288.53;6091567;19;1025;-73
2022/12/22 05:23:52;;;;;;;;;;;;;;;17.99;nan;95293.06;6115507;19;866;-73
2022/12/22 05:25:55;;;;;;;;;;;;;;;18.33;nan;95291.56;6116904;19;1121;-73
2022/12/22 05:28:01;;;;;;;;;;;;;;;18.41;nan;95291.44;6118464;19;895;-73
2022/12/22 05:30:05;;;;;;;;;;;;;;;18.53;nan;95286.44;6116572;19;1857;-74
2022/12/22 05:32:08;;;;;;;;;;;;;;;18.70;nan;95292.34;6105765;19;1057;-73
2022/12/22 05:34:11;;;;;;;;;;;;;;;18.80;nan;95289.31;6102493;19;1089;-73
2022/12/22 05:36:15;;;;;;;;;;;;;;;18.82;nan;95295.28;6112527;19;1021;-73
2022/12/22 05:38:18;;;;;;;;;;;;;;;18.85;nan;95287.72;6114013;19;1580;-74
2022/12/22 05:40:22;;;;;;;;;;;;;;;18.91;nan;95291.44;6112044;19;1390;-75
2022/12/22 05:42:37;;;;;;;;;;;;;;;18.97;nan;95288.81;6113819;19;1132;-74
2022/12/22 05:44:43;;;;;;;;;;;;;;;19.04;nan;95291.56;6086555;19;1104;-73
2022/12/22 05:46:46;;;;;;;;;;;;;;;19.09;nan;95288.28;6113714;19;1045;-73
2022/12/22 05:48:50;;;;;;;;;;;;;;;19.15;nan;95292.81;6114859;19;1853;-73
2022/12/22 05:50:53;;;;;;;;;;;;;;;19.17;nan;95291.59;6117066;19;1033;-73
2022/12/22 05:52:56;;;;;;;;;;;;;;;19.20;nan;95290.41;6117897;19;1062;-74
2022/12/22 05:55:00;;;;;;;;;;;;;;;19.25;nan;95287.97;6105295;19;1764;-73
2022/12/22 05:57:03;;;;;;;;;;;;;;;19.27;nan;95291.28;6103946;19;1261;-73
2022/12/22 05:59:06;;;;;;;;;;;;;;;19.29;nan;95296.38;6115035;19;1391;-73
2022/12/22 06:01:12;;;;;;;;;;;;;;;19.32;nan;95296.84;6117023;19;1034;-74
2022/12/22 06:03:15;;;;;;;;;;;;;;;19.34;nan;95291.31;6115847;19;1551;-74
2022/12/22 06:05:19;;;;;;;;;;;;;;;19.35;nan;95304.44;6116128;19;1395;-74
2022/12/22 06:07:22;;;;;;;;;;;;;;;19.37;nan;95301.56;6089704;19;1954;-74
2022/12/22 06:09:25;;;;;;;;;;;;;;;19.41;nan;95303.66;6123015;19;1849;-74
2022/12/22 06:11:29;;;;;;;;;;;;;;;19.39;nan;95299.53;6123312;19;931;-74
2022/12/22 06:13:32;;;;;;;;;;;;;;;19.39;nan;95300.34;6121177;19;1113;-74
2022/12/22 06:15:35;;;;;;;;;;;;;;;19.39;nan;95294.19;6124454;19;953;-74
2022/12/22 06:17:41;;;;;;;;;;;;;;;19.36;nan;95299.94;6111138;19;1122;-74
2022/12/22 06:19:45;;;;;;;;;;;;;;;19.35;nan;95299.13;6110167;19;1140;-75
2022/12/22 06:21:48;;;;;;;;;;;;;;;19.34;nan;95286.78;6123214;19;1033;-74
2022/12/22 06:23:53;;;;;;;;;;;;;;;19.37;nan;95290.91;6124295;19;1093;-74
2022/12/22 06:25:57;;;;;;;;;;;;;;;19.39;nan;95292.34;6123530;19;1028;-74
2022/12/22 06:28:01;;;;;;;;;;;;;;;19.41;nan;95293.00;6123107;19;1010;-74
2022/12/22 06:30:04;;;;;;;;;;;;;;;19.43;nan;95298.97;6095386;19;1871;-73
2022/12/22 06:32:08;;;;;;;;;;;;;;;19.50;nan;95295.50;6123068;19;975;-74
2022/12/22 06:34:16;;;;;;;;;;;;;;;19.49;nan;95301.81;6123311;19;1149;-74
2022/12/22 06:36:20;;;;;;;;;;;;;;;19.50;nan;95300.81;6121954;19;1090;-74
2022/12/22 06:38:23;;;;;;;;;;;;;;;19.52;nan;95304.94;6123026;19;1206;-74
2022/12/22 06:40:27;;;;;;;;;;;;;;;19.51;nan;95307.78;6110141;19;1111;-74
2022/12/22 06:44:46;;;;;;;;;;;;;;;19.57;nan;95299.03;6123099;19;767;-73
2022/12/22 06:46:49;;;;;;;;;;;;;;;19.64;nan;95300.72;6123507;19;1049;-74
2022/12/22 06:48:52;;;;;;;;;;;;;;;19.68;nan;95303.78;6123703;19;982;-74
2022/12/22 06:51:01;;;;;;;;;;;;;;;19.72;nan;95305.06;6120552;19;1845;-73
2022/12/22 06:53:04;;;;;;;;;;;;;;;19.75;nan;95309.16;6095939;19;1341;-74
2022/12/22 06:55:08;;;;;;;;;;;;;;;19.80;nan;95306.72;6123583;19;1033;-74
2022/12/22 06:57:11;;;;;;;;;;;;;;;19.81;nan;95303.03;6123333;19;937;-73
2022/12/22 06:59:15;;;;;;;;;;;;;;;19.82;nan;95308.16;6120257;19;1505;-74
2022/12/22 07:01:18;;;;;;;;;;;;;;;19.86;nan;95305.91;6122979;19;1227;-74
2022/12/22 07:03:21;;;;;;;;;;;;;;;19.87;nan;95308.38;6106724;19;1301;-74
2022/12/22 07:05:25;;;;;;;;;;;;;;;19.92;nan;95315.81;6111545;19;983;-75
2022/12/22 07:07:31;;;;;;;;;;;;;;;19.93;nan;95314.75;6122575;19;1044;-74
2022/12/22 07:09:35;;;;;;;;;;;;;;;19.98;nan;95317.66;6122445;19;1851;-74
2022/12/22 07:11:38;;;;;;;;;;;;;;;20.00;nan;95312.13;6122745;19;1048;-74
2022/12/22 07:13:42;;;;;;;;;;;;;;;20.00;nan;95306.78;6119698;19;1195;-74
2022/12/22 07:15:45;;;;;;;;;;;;;;;20.06;nan;95309.47;6095833;19;1193;-74
2022/12/22 07:17:48;;;;;;;;;;;;;;;20.07;nan;95308.44;6123093;19;962;-74
2022/12/22 07:19:52;;;;;;;;;;;;;;;20.11;nan;95314.19;6121577;19;1005;-75
2022/12/22 07:21:55;;;;;;;;;;;;;;;20.10;nan;95316.03;6123510;19;1060;-75
2022/12/22 07:24:01;;;;;;;;;;;;;;;20.18;nan;95319.56;6122906;19;1136;-75
2022/12/22 07:26:05;;;;;;;;;;;;;;;20.18;nan;95315.06;6111038;19;1054;-74
2022/12/22 07:28:08;;;;;;;;;;;;;;;20.24;nan;95324.09;6111225;19;1132;-74
2022/12/22 07:30:13;;;;;;;;;;;;;;;20.28;nan;95323.47;6121783;19;1845;-74
2022/12/22 07:32:16;;;;;;;;;;;;;;;20.28;nan;95323.47;6122456;19;1136;-73
2022/12/22 07:34:19;;;;;;;;;;;;;;;20.32;nan;95324.72;6118938;19;1371;-73
2022/12/22 07:36:23;;;;;;;;;;;;;;;20.36;nan;95324.31;6121815;19;1089;-74
2022/12/22 07:38:26;;;;;;;;;;;;;;;20.35;nan;95315.50;6094746;19;1144;-73
2022/12/22 07:40:32;;;;;;;;;;;;;;;20.38;nan;95309.78;6121976;19;963;-73
2022/12/22 07:42:45;;;;;;;;;;;;;;;20.40;nan;95313.03;6121219;19;973;-74
2022/12/22 07:44:48;;;;;;;;;;;;;;;20.42;nan;95305.66;6121616;19;1033;-74
2022/12/22 07:46:52;;;;;;;;;;;;;;;20.42;nan;95315.53;6121928;19;1072;-73
2022/12/22 07:51:11;;;;;;;;;;;;;;;20.43;nan;95306.47;6119261;19;1815;-74
2022/12/22 07:53:14;;;;;;;;;;;;;;;20.42;nan;95312.84;6121681;19;1058;-74
2022/12/22 07:55:18;;;;;;;;;;;;;;;20.47;nan;95307.75;6120768;19;1067;-75
2022/12/22 07:57:25;;;;;;;;;;;;;;;20.50;nan;95307.31;6120546;19;1056;-74
2022/12/22 07:59:28;;;;;;;;;;;;;;;20.55;nan;95299.53;6121619;19;1025;-74
2022/12/22 08:01:32;;;;;;;;;;;;;;;20.57;nan;95305.47;6098855;19;1177;-74
2022/12/22 08:03:35;;;;;;;;;;;;;;;20.61;nan;95308.56;6118814;19;1284;-74
2022/12/22 08:05:39;;;;;;;;;;;;;;;20.63;nan;95318.03;6119963;19;1053;-72
2022/12/22 08:07:42;;;;;;;;;;;;;;;20.66;nan;95312.28;6120271;19;962;-73
2022/12/22 08:09:46;;;;;;;;;;;;;;;20.67;nan;95311.25;6120937;19;1850;-74
2022/12/22 08:11:50;;;;;;;;;;;;;;;20.69;nan;95308.38;6093933;19;1045;-75
2022/12/22 08:13:56;;;;;;;;;;;;;;;20.69;nan;95305.72;6118469;19;1055;-74
2022/12/22 08:16:03;;;;;;;;;;;;;;;20.66;nan;95301.59;6120331;19;1105;-74
2022/12/22 08:18:07;;;;;;;;;;;;;;;20.65;nan;95305.28;6119764;19;1040;-75
2022/12/22 08:20:11;;;;;;;;;;;;;;;20.68;nan;95304.88;6118919;19;1037;-74
2022/12/22 08:22:14;;;;;;;;;;;;;;;20.71;nan;95304.44;6115035;19;1625;-73
2022/12/22 08:24:18;;;;;;;;;;;;;;;20.75;nan;95305.69;6100081;19;1109;-74
2022/12/22 08:26:26;;;;;;;;;;;;;;;20.70;nan;95310.81;6120100;19;1139;-76
2022/12/22 08:28:30;;;;;;;;;;;;;;;20.74;nan;95309.41;6119070;19;1100;-74
2022/12/22 08:30:36;;;;;;;;;;;;;;;20.74;nan;95297.88;6116841;19;1855;-74
2022/12/22 08:32:40;;;;;;;;;;;;;;;20.71;nan;95303.63;6119986;19;950;-75
2022/12/22 08:34:45;;;;;;;;;;;;;;;20.73;nan;95304.25;6094380;19;1108;-75
2022/12/22 08:36:51;;;;;;;;;;;;;;;20.66;nan;95306.09;6120106;19;1166;-76
2022/12/22 08:38:54;;;;;;;;;;;;;;;20.64;nan;95308.97;6117929;19;1208;-76
2022/12/22 08:41:00;;;;;;;;;;;;;;;20.66;nan;95304.28;6120041;19;1049;-75
2022/12/22 08:43:06;;;;;;;;;;;;;;;20.66;nan;95308.75;6126622;19;954;-76
2022/12/22 08:45:11;;;;;;;;;;;;;;;20.69;nan;95300.38;6117688;19;1209;-77
2022/12/22 08:47:20;;;;;;;;;;;;;;;20.67;nan;95308.56;6116391;19;1054;-76
2022/12/22 08:49:24;;;;;;;;;;;;;;;20.69;nan;95303.84;6119891;19;1552;-76
2022/12/22 08:51:27;;;;;;;;;;;;;;;20.69;nan;95295.84;6122785;19;1853;-75
2022/12/22 08:53:30;;;;;;;;;;;;;;;20.73;nan;95293.56;6122669;19;1483;-74
2022/12/22 08:55:34;;;;;;;;;;;;;;;20.73;nan;95291.72;6124604;19;1053;-76
2022/12/22 08:57:37;;;;;;;;;;;;;;;20.72;nan;95287.41;6101471;19;1116;-75
2022/12/22 08:59:41;;;;;;;;;;;;;;;20.72;nan;95284.75;6122002;19;1327;-76
2022/12/22 09:01:49;;;;;;;;;;;;;;;20.69;nan;95279.00;6123141;19;911;-74
2022/12/22 09:03:56;;;;;;;;;;;;;;;20.69;nan;95276.34;6120900;19;1570;-75
2022/12/22 09:06:02;;;;;;;;;;;;;;;20.75;nan;95273.66;6122069;19;1174;-75
2022/12/22 09:08:06;;;;;;;;;;;;;;;20.75;nan;95270.16;6109693;19;1452;-75
2022/12/22 09:10:11;;;;;;;;;;;;;;;20.75;nan;95268.31;6108646;19;1833;-74
2022/12/22 09:12:14;;;;;;;;;;;;;;;20.73;nan;95262.34;6118985;19;1173;-75
2022/12/22 09:14:17;;;;;;;;;;;;;;;20.73;nan;95265.03;6119462;19;1104;-74
2022/12/22 09:16:22;;;;;;;;;;;;;;;20.79;nan;95256.19;6118423;19;1379;-75
2022/12/22 09:18:25;;;;;;;;;;;;;;;20.77;nan;95260.06;6118818;19;1281;-75
2022/12/22 09:20:31;;;;;;;;;;;;;;;20.75;nan;95251.47;6091681;19;1007;-74
2022/12/22 09:22:34;;;;;;;;;;;;;;;20.75;nan;95256.81;6120236;19;1018;-74
2022/12/22 09:24:38;;;;;;;;;;;;;;;20.70;nan;95249.41;6120174;19;857;-74
2022/12/22 09:26:41;;;;;;;;;;;;;;;20.70;nan;95248.59;6122177;19;1143;-75
2022/12/22 09:28:45;;;;;;;;;;;;;;;20.73;nan;95249.00;6121836;19;1113;-75
2022/12/22 09:30:50;;;;;;;;;;;;;;;20.77;nan;95244.06;6104555;19;1858;-75
2022/12/22 09:32:55;;;;;;;;;;;;;;;20.79;nan;95244.69;6106617;19;1061;-74
2022/12/22 09:34:59;;;;;;;;;;;;;;;20.82;nan;95241.59;6119695;19;1092;-75
2022/12/22 09:37:05;;;;;;;;;;;;;;;20.76;nan;95245.91;6120346;19;1013;-75
2022/12/22 09:39:09;;;;;;;;;;;;;;;20.86;nan;95247.34;6117488;19;1433;-75
2022/12/22 09:41:17;;;;;;;;;;;;;;;20.93;nan;95240.97;6117362;19;1026;-75
2022/12/22 09:43:21;;;;;;;;;;;;;;;21.01;nan;95234.59;6097603;19;1037;-75
2022/12/22 09:45:25;;;;;;;;;;;;;;;21.03;nan;95245.88;6125458;19;1033;-75
2022/12/22 09:47:34;;;;;;;;;;;;;;;21.05;nan;95235.78;6124840;19;1041;-75
2022/12/22 09:49:38;;;;;;;;;;;;;;;21.08;nan;95229.22;6124341;19;970;-74
2022/12/22 09:51:43;;;;;;;;;;;;;;;21.09;nan;95229.03;6122193;19;1853;-74
2022/12/22 09:53:53;;;;;;;;;;;;;;;21.09;nan;95231.69;6108704;19;1052;-73
2022/12/22 09:55:56;;;;;;;;;;;;;;;21.11;nan;95226.13;6122463;19;1100;-73
2022/12/22 09:57:59;;;;;;;;;;;;;;;21.10;nan;95230.66;6124147;19;1138;-74
2022/12/22 10:00:08;;;;;;;;;;;;;;;21.13;nan;95230.22;6124731;19;1064;-74
2022/12/22 10:02:21;;;;;;;;;;;;;;;21.13;nan;95224.88;6123380;19;1317;-74
2022/12/22 10:04:31;;;;;;;;;;;;;;;21.14;nan;95213.19;6123072;19;1090;-74
2022/12/22 10:06:37;;;;;;;;;;;;;;;21.13;nan;95205.38;6107142;19;1190;-74
2022/12/22 10:08:41;;;;;;;;;;;;;;;21.15;nan;95208.66;6124980;19;1018;-75
2022/12/22 10:10:47;;;;;;;;;;;;;;;21.15;nan;95198.78;6123029;19;1838;-74
2022/12/22 10:12:51;;;;;;;;;;;;;;;21.16;nan;95194.25;6123447;19;1133;-74
2022/12/22 10:14:55;;;;;;;;;;;;;;;21.15;nan;95182.75;6124035;19;955;-74
2022/12/22 10:17:13;;;;;;;;;;;;;;;21.14;nan;95183.78;6098009;19;1029;-74
2022/12/22 10:19:16;;;;;;;;;;;;;;;21.14;nan;95181.13;6122980;19;1148;-74
2022/12/22 10:21:25;;;;;;;;;;;;;;;21.14;nan;95178.44;6123773;19;981;-74
2022/12/22 10:23:29;;;;;;;;;;;;;;;21.13;nan;95179.47;6124909;19;1024;-75
2022/12/22 10:25:34;;;;;;;;;;;;;;;21.10;nan;95171.88;6123919;19;1040;-74
2022/12/22 10:27:40;;;;;;;;;;;;;;;21.14;nan;95172.25;6110077;19;1272;-74
2022/12/22 10:29:43;;;;;;;;;;;;;;;21.15;nan;95165.91;6111132;19;1128;-74
2022/12/22 10:32:01;;;;;;;;;;;;;;;21.13;nan;95168.78;6122120;19;1806;-74
2022/12/22 10:34:14;;;;;;;;;;;;;;;21.12;nan;95161.81;6123580;19;1044;-74
2022/12/22 10:36:21;;;;;;;;;;;;;;;21.13;nan;95165.28;6124349;19;1017;-75
2022/12/22 10:38:26;;;;;;;;;;;;;;;21.10;nan;95155.84;6124528;19;1016;-76
2022/12/22 10:40:32;;;;;;;;;;;;;;;21.11;nan;95159.31;6096076;19;1042;-78
2022/12/22 10:42:36;;;;;;;;;;;;;;;21.12;nan;95161.81;6123784;19;1081;-75
2022/12/22 10:44:46;;;;;;;;;;;;;;;21.12;nan;95156.47;6121165;19;1441;-73
2022/12/22 10:46:51;;;;;;;;;;;;;;;21.11;nan;95156.66;6123044;19;966;-74
2022/12/22 10:48:54;;;;;;;;;;;;;;;21.11;nan;95154.78;6122979;19;1047;-74
2022/12/22 10:50:58;;;;;;;;;;;;;;;21.12;nan;95145.78;6093647;19;1855;-74
2022/12/22 10:53:02;;;;;;;;;;;;;;;21.12;nan;95143.09;6123189;19;1072;-73
2022/12/22 10:55:18;;;;;;;;;;;;;;;21.12;nan;95140.44;6120813;19;1013;-74
2022/12/22 10:57:30;;;;;;;;;;;;;;;21.13;nan;95138.56;6122896;19;1025;-73
2022/12/22 10:59:34;;;;;;;;;;;;;;;21.09;nan;95135.50;6122926;19;1057;-73
2022/12/22 11:01:40;;;;;;;;;;;;;;;21.12;nan;95137.75;6109105;19;999;-73
2022/12/22 11:03:43;;;;;;;;;;;;;;;21.11;nan;95129.94;6106194;19;1313;-74
2022/12/22 11:05:47;;;;;;;;;;;;;;;21.11;nan;95136.09;6122674;19;1275;-74
2022/12/22 11:07:51;;;;;;;;;;;;;;;21.12;nan;95129.75;6120327;19;1435;-74
2022/12/22 11:09:54;;;;;;;;;;;;;;;21.10;nan;95126.44;6121398;19;1010;-74
2022/12/22 11:12:01;;;;;;;;;;;;;;;21.11;nan;95129.94;6120490;19;1853;-74
2022/12/22 11:14:09;;;;;;;;;;;;;;;21.10;nan;95130.97;6094895;19;1353;-74
2022/12/22 11:16:16;;;;;;;;;;;;;;;21.09;nan;95122.16;6121793;19;1129;-74
2022/12/22 11:18:28;;;;;;;;;;;;;;;21.09;nan;95119.47;6119181;19;1520;-74
2022/12/22 11:20:39;;;;;;;;;;;;;;;21.09;nan;95110.66;6122439;19;1001;-74
2022/12/22 11:22:47;;;;;;;;;;;;;;;21.08;nan;95111.66;6122956;19;1032;-75
2022/12/22 11:24:57;;;;;;;;;;;;;;;21.08;nan;95107.13;6095358;19;1046;-74
2022/12/22 11:27:05;;;;;;;;;;;;;;;21.08;nan;95101.78;6121267;19;1059;-74
2022/12/22 11:29:16;;;;;;;;;;;;;;;21.08;nan;95109.81;6119869;19;1513;-74
2022/12/22 11:31:24;;;;;;;;;;;;;;;21.07;nan;95105.50;6120466;19;1856;-73
2022/12/22 11:33:37;;;;;;;;;;;;;;;21.07;nan;95102.03;6122196;19;1112;-74
2022/12/22 11:35:49;;;;;;;;;;;;;;;21.06;nan;95101.19;6109214;19;1371;-74
2022/12/22 11:37:55;;;;;;;;;;;;;;;21.05;nan;95096.88;6108581;19;1178;-75
2022/12/22 11:40:05;;;;;;;;;;;;;;;21.04;nan;95083.75;6120366;19;1245;-74
2022/12/22 11:42:20;;;;;;;;;;;;;;;21.06;nan;95095.88;6121711;19;1053;-73
2022/12/22 11:44:32;;;;;;;;;;;;;;;21.04;nan;95084.56;6122718;19;954;-74
2022/12/22 11:46:39;;;;;;;;;;;;;;;21.04;nan;95089.91;6121759;19;1128;-75
2022/12/22 11:48:56;;;;;;;;;;;;;;;21.00;nan;95088.69;6098452;19;1347;-75
2022/12/22 11:51:02;;;;;;;;;;;;;;;21.00;nan;95091.38;6120398;19;1374;-75
2022/12/22 11:53:14;;;;;;;;;;;;;;;21.00;nan;95089.50;6121314;19;1140;-76
2022/12/22 11:55:26;;;;;;;;;;;;;;;20.97;nan;95084.59;6120256;19;1396;-75
2022/12/22 11:57:33;;;;;;;;;;;;;;;20.99;nan;95081.69;6121511;19;1471;-75
2022/12/22 11:59:43;;;;;;;;;;;;;;;20.98;nan;95080.88;6096543;19;1053;-75
2022/12/22 12:02:04;;;;;;;;;;;;;;;20.96;nan;95079.44;6120838;19;1036;-75
2022/12/22 12:04:17;;;;;;;;;;;;;;;20.96;nan;95074.94;6122162;19;1493;-75
2022/12/22 12:06:30;;;;;;;;;;;;;;;20.94;nan;95074.34;6121713;19;1153;-75
2022/12/22 12:08:39;;;;;;;;;;;;;;;20.94;nan;95070.81;6119591;19;1140;-76
2022/12/22 12:10:46;;;;;;;;;;;;;;;20.95;nan;95075.16;6095962;19;1013;-75
2022/12/22 12:12:54;;;;;;;;;;;;;;;20.96;nan;95072.25;6120460;19;1849;-75
2022/12/22 12:15:04;;;;;;;;;;;;;;;20.94;nan;95069.00;6122428;19;1052;-75
2022/12/22 12:17:16;;;;;;;;;;;;;;;20.94;nan;95065.47;6118997;19;1461;-76
2022/12/22 12:19:41;;;;;;;;;;;;;;;20.94;nan;95062.81;6119997;19;1462;-75
2022/12/22 12:21:51;;;;;;;;;;;;;;;20.94;nan;95054.81;6093849;19;1015;-74
2022/12/22 12:24:10;;;;;;;;;;;;;;;20.94;nan;95055.66;6119591;19;1056;-75
2022/12/22 12:26:18;;;;;;;;;;;;;;;20.94;nan;95057.47;6121134;19;1066;-75
2022/12/22 12:28:26;;;;;;;;;;;;;;;20.94;nan;95062.81;6120910;19;1065;-75
2022/12/22 12:30:35;;;;;;;;;;;;;;;20.91;nan;95056.03;6121066;19;1048;-75
2022/12/22 12:32:42;;;;;;;;;;;;;;;20.95;nan;95053.78;6105903;19;1850;-74
2022/12/22 12:34:48;;;;;;;;;;;;;;;20.98;nan;95061.38;6105609;19;1407;-75
2022/12/22 12:36:58;;;;;;;;;;;;;;;20.91;nan;95055.22;6118382;19;1547;-76
2022/12/22 12:39:05;;;;;;;;;;;;;;;20.94;nan;95054.81;6119457;19;1122;-75
2022/12/22 12:41:16;;;;;;;;;;;;;;;20.92;nan;95044.34;6120176;19;1049;-75
2022/12/22 12:43:20;;;;;;;;;;;;;;;20.93;nan;95055.84;6119483;19;1042;-75
2022/12/22 12:45:37;;;;;;;;;;;;;;;20.93;nan;95053.16;6092629;19;1195;-75
2022/12/22 12:47:40;;;;;;;;;;;;;;;20.91;nan;95049.88;6120042;19;970;-76
2022/12/22 12:49:59;;;;;;;;;;;;;;;20.93;nan;95045.16;6119054;19;1152;-76
2022/12/22 12:52:06;;;;;;;;;;;;;;;20.91;nan;95041.88;6119370;19;1843;-75
2022/12/22 12:54:36;;;;;;;;;;;;;;;20.94;nan;95036.09;6117950;19;1501;-75
2022/12/22 12:56:54;;;;;;;;;;;;;;;20.92;nan;95036.34;6091562;19;1026;-75
2022/12/22 12:58:57;;;;;;;;;;;;;;;20.90;nan;95040.25;6119857;19;1126;-76
2022/12/22 13:01:01;;;;;;;;;;;;;;;20.89;nan;95046.63;6118958;19;1045;-75
2022/12/22 13:03:05;;;;;;;;;;;;;;;20.89;nan;95036.75;6117152;19;1390;-76
2022/12/22 13:05:28;;;;;;;;;;;;;;;20.88;nan;95037.78;6119510;19;961;-75
2022/12/22 13:07:46;;;;;;;;;;;;;;;20.89;nan;95039.44;6093018;19;1011;-75
2022/12/22 13:10:05;;;;;;;;;;;;;;;20.90;nan;95029.56;6119964;19;1042;-76
2022/12/22 13:12:23;;;;;;;;;;;;;;;20.89;nan;95031.41;6117926;19;1858;-75
2022/12/22 13:14:41;;;;;;;;;;;;;;;20.88;nan;95037.78;6118939;19;1058;-75
2022/12/22 13:16:47;;;;;;;;;;;;;;;20.88;nan;95037.78;6117614;19;1053;-74
2022/12/22 13:18:51;;;;;;;;;;;;;;;20.87;nan;95033.47;6092446;19;1087;-75
2022/12/22 13:20:56;;;;;;;;;;;;;;;20.87;nan;95032.66;6118756;19;962;-75
2022/12/22 13:23:01;;;;;;;;;;;;;;;20.88;nan;95026.28;6116874;19;1425;-75
2022/12/22 13:25:05;;;;;;;;;;;;;;;20.88;nan;95032.44;6119048;19;1625;-75
2022/12/22 13:27:11;;;;;;;;;;;;;;;20.87;nan;95028.13;6119525;19;990;-75
2022/12/22 13:29:18;;;;;;;;;;;;;;;20.88;nan;95029.75;6106740;19;975;-75
2022/12/22 13:31:23;;;;;;;;;;;;;;;20.88;nan;95028.94;6104810;19;2195;-75
2022/12/22 13:33:31;;;;;;;;;;;;;;;20.88;nan;95028.94;6117699;19;1852;-76
2022/12/22 13:35:37;;;;;;;;;;;;;;;20.67;nan;95033.56;6118997;19;1104;-77
2022/12/22 13:37:42;;;;;;;;;;;;;;;20.74;nan;95026.38;6118018;19;1269;-77
2022/12/22 13:40:00;;;;;;;;;;;;;;;20.86;nan;95028.34;6121945;19;954;-76
2022/12/22 13:42:07;;;;;;;;;;;;;;;20.90;nan;95029.56;6091006;19;1201;-75
2022/12/22 13:44:27;;;;;;;;;;;;;;;20.92;nan;95028.31;6118034;19;1036;-75
2022/12/22 13:46:31;;;;;;;;;;;;;;;20.93;nan;95031.81;6118032;19;1016;-75
2022/12/22 13:48:39;;;;;;;;;;;;;;;20.88;nan;95028.94;6118717;19;986;-75
2022/12/22 13:50:45;;;;;;;;;;;;;;;20.89;nan;95033.28;6118252;19;1041;-78
2022/12/22 13:52:49;;;;;;;;;;;;;;;19.03;nan;95028.09;6090388;19;1846;-79
2022/12/22 13:54:52;;;;;;;;;;;;;;;19.22;nan;95029.97;6117590;19;1105;-75
2022/12/22 13:56:58;;;;;;;;;;;;;;;19.62;nan;95014.06;6118012;19;992;-75
2022/12/22 13:59:02;;;;;;;;;;;;;;;19.87;nan;95025.72;6119491;19;1059;-76
2022/12/22 14:01:15;;;;;;;;;;;;;;;20.20;nan;95024.03;6119781;19;997;-75
2022/12/22 14:03:19;;;;;;;;;;;;;;;20.37;nan;95021.75;6104328;19;1354;-75
2022/12/22 14:05:31;;;;;;;;;;;;;;;20.49;nan;95020.09;6104328;19;1053;-75
2022/12/22 14:07:35;;;;;;;;;;;;;;;20.58;nan;95016.16;6117150;19;981;-75
2022/12/22 14:09:38;;;;;;;;;;;;;;;20.63;nan;95019.00;6118827;19;1017;-76
2022/12/22 14:11:42;;;;;;;;;;;;;;;20.67;nan;95022.88;6118193;19;1049;-74
2022/12/22 14:13:45;;;;;;;;;;;;;;;20.68;nan;95026.38;6117181;19;1853;-75
2022/12/22 14:15:49;;;;;;;;;;;;;;;20.69;nan;95023.50;6090545;19;1504;-75
2022/12/22 14:17:52;;;;;;;;;;;;;;;20.71;nan;95010.72;6117509;19;1148;-75
2022/12/22 14:19:56;;;;;;;;;;;;;;;20.09;nan;95020.16;6118681;19;1049;-76
2022/12/22 14:22:07;;;;;;;;;;;;;;;19.63;nan;95016.53;6117252;19;990;-75
2022/12/22 14:24:13;;;;;;;;;;;;;;;19.80;nan;95011.56;6117532;19;1029;-75
2022/12/22 14:26:20;;;;;;;;;;;;;;;20.07;nan;95012.38;6104729;19;998;-76
2022/12/22 14:28:27;;;;;;;;;;;;;;;20.28;nan;95010.47;6108876;19;1292;-76
2022/12/22 14:30:32;;;;;;;;;;;;;;;20.42;nan;95019.28;6122688;19;942;-76
2022/12/22 14:32:37;;;;;;;;;;;;;;;20.52;nan;95012.47;6123333;19;1854;-76
2022/12/22 14:34:41;;;;;;;;;;;;;;;20.56;nan;95008.34;6123338;19;1033;-76
2022/12/22 14:36:45;;;;;;;;;;;;;;;20.62;nan;95006.69;6123031;19;1136;-75
2022/12/22 14:38:51;;;;;;;;;;;;;;;20.64;nan;95009.97;6096808;19;962;-75
2022/12/22 14:40:55;;;;;;;;;;;;;;;20.68;nan;95005.00;6123261;19;1180;-76
2022/12/22 14:42:59;;;;;;;;;;;;;;;20.68;nan;95010.34;6123684;19;1107;-76
2022/12/22 14:45:03;;;;;;;;;;;;;;;20.65;nan;95014.25;6122831;19;1064;-75
2022/12/22 14:47:24;;;;;;;;;;;;;;;20.68;nan;95015.69;6127276;19;1178;-75
2022/12/22 14:49:28;;;;;;;;;;;;;;;20.69;nan;95004.00;6096943;19;1148;-75
2022/12/22 14:51:31;;;;;;;;;;;;;;;20.69;nan;95018.16;6121501;19;1025;-76
2022/12/22 14:53:40;;;;;;;;;;;;;;;20.71;nan;95012.59;6121402;19;1841;-75
2022/12/22 14:55:51;;;;;;;;;;;;;;;20.69;nan;95010.16;6122961;19;1037;-75
2022/12/22 14:57:55;;;;;;;;;;;;;;;20.70;nan;95011.78;6120932;19;1374;-75
2022/12/22 15:00:00;;;;;;;;;;;;;;;20.69;nan;95017.34;6109211;19;1054;-75
2022/12/22 15:02:04;;;;;;;;;;;;;;;20.71;nan;95010.72;6107875;19;1289;-75
2022/12/22 15:04:08;;;;;;;;;;;;;;;20.70;nan;95021.66;6122656;19;970;-76